Time;durP1;ratioP1;P1;durP2;ratioP2;P2;SDS_P1;SDS_P2;PMS_P1;PMS_P2;Temp;Humidity;BMP_temperature;BMP_pressure;BME280_temperature;BME280_humidity;BME280_pressure;Samples;Min_cycle;Max_cycle;Signal;HPM_P1;HPM_P2
2024/01/08 00:00:33;;;;;;;9.43;1.77;;;16.40;35.90;;;;;;5129448;27;20068;-54
2024/01/08 00:02:59;;;;;;;12.55;2.22;;;16.30;35.50;;;;;;5128076;27;20123;-58
2024/01/08 00:05:26;;;;;;;20.13;2.33;;;16.20;35.30;;;;;;5127641;27;20124;-56
2024/01/08 00:07:52;;;;;;;31.95;2.17;;;16.20;34.70;;;;;;5128442;27;20119;-66
2024/01/08 00:10:20;;;;;;;14.15;2.30;;;16.20;35.60;;;;;;5130181;27;21916;-64
2024/01/08 00:12:46;;;;;;;16.13;2.55;;;16.10;35.30;;;;;;5129137;27;20143;-54
2024/01/08 00:15:13;;;;;;;11.85;1.63;;;16.00;36.00;;;;;;5128253;27;20076;-55
2024/01/08 00:17:40;;;;;;;15.32;1.48;;;15.90;36.20;;;;;;5127446;27;20091;-50
2024/01/08 00:20:09;;;;;;;14.43;6.40;;;15.80;36.50;;;;;;5128645;27;20095;-63
2024/01/08 00:22:35;;;;;;;12.93;1.73;;;15.80;36.50;;;;;;5128926;27;20104;-59
2024/01/08 00:25:02;;;;;;;6.68;1.30;;;15.70;36.20;;;;;;5130219;27;20075;-55
2024/01/08 00:27:29;;;;;;;9.57;1.63;;;15.70;36.60;;;;;;5128931;27;20085;-57
2024/01/08 00:29:55;;;;;;;4.90;1.23;;;15.60;35.80;;;;;;5123465;27;20080;-58
2024/01/08 00:32:22;;;;;;;2.60;0.82;;;15.60;36.10;;;;;;5129061;27;20096;-57
2024/01/08 00:34:48;;;;;;;10.68;1.35;;;15.50;36.30;;;;;;5128679;27;20072;-52
2024/01/08 00:37:15;;;;;;;3.72;1.00;;;15.40;36.50;;;;;;5128326;27;20121;-56
2024/01/08 00:39:43;;;;;;;4.93;1.20;;;15.40;36.90;;;;;;5129384;27;20091;-60
2024/01/08 00:42:09;;;;;;;6.82;1.30;;;15.30;37.20;;;;;;5112807;27;20080;-57
2024/01/08 00:44:36;;;;;;;13.05;1.30;;;15.20;37.50;;;;;;5126261;27;20080;-57
2024/01/08 00:47:02;;;;;;;3.70;0.90;;;15.20;37.90;;;;;;5125985;27;20068;-64
2024/01/08 00:49:29;;;;;;;4.55;1.48;;;15.10;38.40;;;;;;5125466;27;20529;-58
2024/01/08 00:51:55;;;;;;;5.38;1.50;;;15.00;38.80;;;;;;5129035;27;20095;-53
2024/01/08 00:54:22;;;;;;;5.53;1.25;;;15.00;39.70;;;;;;5130233;27;20072;-53
2024/01/08 00:56:48;;;;;;;8.85;3.72;;;14.90;40.00;;;;;;5127091;27;20067;-58
2024/01/08 00:59:15;;;;;;;9.20;1.50;;;14.90;40.40;;;;;;5127951;27;20171;-56
2024/01/08 01:01:41;;;;;;;11.40;1.58;;;14.80;41.00;;;;;;5129880;27;20115;-57
2024/01/08 01:04:08;;;;;;;7.28;1.63;;;14.80;41.10;;;;;;5126749;27;20175;-55
2024/01/08 01:06:34;;;;;;;;;;;14.70;41.50;;;;;;5130789;27;20436;-56
2024/01/08 01:09:00;;;;;;;9.38;1.98;;;14.70;41.80;;;;;;5109210;27;19971;-55
2024/01/08 01:11:27;;;;;;;5.88;1.98;;;14.60;42.00;;;;;;5110838;27;20129;-54
2024/01/08 01:13:53;;;;;;;6.53;1.90;;;14.60;42.50;;;;;;5127000;27;20106;-56
2024/01/08 01:16:21;;;;;;;9.07;3.78;;;14.50;42.70;;;;;;5128710;27;20106;-55
2024/01/08 01:18:47;;;;;;;5.68;1.55;;;14.40;42.90;;;;;;5125311;27;20084;-55
2024/01/08 01:21:23;;;;;;;11.98;2.08;;;14.40;42.90;;;;;;5122244;27;20195;-55
2024/01/08 01:23:50;;;;;;;15.60;2.58;;;14.30;42.60;;;;;;5125490;27;20091;-66
2024/01/08 01:26:17;;;;;;;8.25;1.80;;;14.30;42.80;;;;;;5126575;27;20136;-56
2024/01/08 01:28:44;;;;;;;11.73;1.48;;;14.40;43.00;;;;;;5128722;27;20117;-62
2024/01/08 01:31:10;;;;;;;8.25;1.35;;;14.40;43.10;;;;;;5128610;27;20158;-56
2024/01/08 01:33:37;;;;;;;8.88;1.63;;;14.30;43.10;;;;;;5126797;27;20096;-53
2024/01/08 01:36:04;;;;;;;13.98;1.92;;;14.30;43.30;;;;;;5105095;27;20158;-55
2024/01/08 01:38:31;;;;;;;7.53;1.50;;;14.30;43.40;;;;;;5122695;27;20125;-53
2024/01/08 01:40:57;;;;;;;7.75;2.33;;;14.20;43.40;;;;;;5128673;27;20072;-57
2024/01/08 01:43:26;;;;;;;14.85;2.13;;;14.20;43.50;;;;;;5127117;27;20098;-63
2024/01/08 01:46:01;;;;;;;17.05;3.10;;;14.20;43.20;;;;;;5126887;27;20075;-54
2024/01/08 01:48:29;;;;;;;26.65;2.92;;;14.10;42.20;;;;;;5128531;27;20079;-58
2024/01/08 01:50:56;;;;;;;24.38;3.63;;;14.20;41.40;;;;;;5127040;27;20078;-55
2024/01/08 01:53:23;;;;;;;23.63;3.45;;;14.10;40.50;;;;;;5126099;27;20092;-56
2024/01/08 01:55:50;;;;;;;35.55;4.60;;;14.10;40.10;;;;;;5126986;27;20150;-56
2024/01/08 01:58:17;;;;;;;37.63;4.32;;;14.10;39.20;;;;;;5128294;27;20156;-59
2024/01/08 02:00:44;;;;;;;51.72;4.65;;;14.10;39.00;;;;;;5124637;27;20437;-54
2024/01/08 02:03:10;;;;;;;38.63;5.20;;;14.00;38.50;;;;;;5129272;27;20168;-54
2024/01/08 02:05:37;;;;;;;42.25;4.35;;;14.00;38.20;;;;;;5127832;27;20068;-54
2024/01/08 02:08:04;;;;;;;32.75;4.32;;;14.00;38.30;;;;;;5126614;27;20479;-56
2024/01/08 02:10:31;;;;;;;35.88;4.65;;;13.90;38.40;;;;;;5128012;27;20072;-53
2024/01/08 02:12:59;;;;;;;41.25;4.45;;;13.80;38.60;;;;;;5126998;27;20442;-54
2024/01/08 02:15:26;;;;;;;44.42;4.50;;;13.80;38.70;;;;;;5127983;27;20445;-49
2024/01/08 02:17:52;;;;;;;26.05;3.38;;;13.80;38.10;;;;;;5127354;27;20076;-52
2024/01/08 02:20:19;;;;;;;21.63;3.20;;;13.90;38.80;;;;;;5127543;27;20174;-49
2024/01/08 02:22:46;;;;;;;21.05;3.40;;;13.70;38.90;;;;;;5127160;27;20068;-55
2024/01/08 02:25:13;;;;;;;27.70;3.25;;;13.70;38.90;;;;;;5128903;27;20159;-55
2024/01/08 02:27:39;;;;;;;15.10;2.28;;;13.70;38.80;;;;;;5128034;27;20159;-51
2024/01/08 02:30:06;;;;;;;22.35;2.80;;;13.70;38.30;;;;;;5127169;27;20080;-72
2024/01/08 02:32:33;;;;;;;15.40;2.72;;;13.70;38.20;;;;;;5126789;27;20137;-55
2024/01/08 02:35:00;;;;;;;16.98;2.67;;;13.60;38.10;;;;;;5127693;27;20099;-56
2024/01/08 02:37:26;;;;;;;15.45;2.22;;;13.60;38.30;;;;;;5125252;27;20082;-52
2024/01/08 02:39:53;;;;;;;12.85;3.17;;;13.60;38.20;;;;;;5127219;27;20189;-56
2024/01/08 02:42:21;;;;;;;12.35;2.30;;;13.70;37.60;;;;;;5131206;27;20103;-51
2024/01/08 02:44:49;;;;;;;16.70;1.95;;;13.70;38.00;;;;;;5128000;27;20604;-51
2024/01/08 02:47:15;;;;;;;17.77;2.95;;;13.70;38.00;;;;;;5128064;27;20117;-54
2024/01/08 02:49:42;;;;;;;10.98;2.80;;;13.70;38.20;;;;;;5127884;27;20493;-65
2024/01/08 02:52:08;;;;;;;;;;;13.60;38.00;;;;;;5127687;28;20103;-61
2024/01/08 02:54:34;;;;;;;9.77;1.25;;;13.60;38.30;;;;;;5125999;28;19956;-54
2024/01/08 02:57:03;;;;;;;4.50;1.60;;;13.60;37.90;;;;;;5127719;28;20072;-52
2024/01/08 02:59:30;;;;;;;3.80;1.65;;;13.60;38.10;;;;;;5127734;28;20079;-51
2024/01/08 03:01:56;;;;;;;6.20;5.60;;;13.60;38.20;;;;;;5127898;28;20137;-55
2024/01/08 03:04:23;;;;;;;3.67;1.80;;;13.60;38.20;;;;;;5126424;28;20110;-56
2024/01/08 03:06:49;;;;;;;7.82;3.05;;;13.60;38.10;;;;;;5128214;28;20616;-57
2024/01/08 03:09:16;;;;;;;15.40;3.65;;;13.50;38.80;;;;;;5126588;28;20120;-55
2024/01/08 03:11:42;;;;;;;12.43;2.60;;;13.30;39.90;;;;;;5126576;28;20064;-58
2024/01/08 03:14:08;;;;;;;;;;;13.10;40.80;;;;;;5125021;28;20159;-59
2024/01/08 03:16:35;;;;;;;11.30;3.20;;;12.90;41.20;;;;;;5124738;28;20036;-58
2024/01/08 03:19:01;;;;;;;10.63;2.88;;;12.80;41.30;;;;;;5122469;28;20076;-53
2024/01/08 03:21:28;;;;;;;11.07;4.25;;;12.70;41.20;;;;;;5123917;28;20076;-51
2024/01/08 03:23:55;;;;;;;24.45;4.75;;;12.70;41.00;;;;;;5124152;28;20159;-52
2024/01/08 03:26:22;;;;;;;30.80;3.55;;;12.70;41.20;;;;;;5127346;28;20159;-56
2024/01/08 03:28:48;;;;;;;21.02;4.10;;;12.60;41.30;;;;;;5126761;28;20064;-57
2024/01/08 03:31:15;;;;;;;17.08;3.83;;;12.60;41.40;;;;;;5124201;28;20110;-55
2024/01/08 03:33:42;;;;;;;16.55;4.00;;;12.60;41.40;;;;;;5126457;28;20506;-54
2024/01/08 03:36:10;;;;;;;18.67;4.45;;;12.50;41.70;;;;;;5124569;28;20158;-56
2024/01/08 03:38:37;;;;;;;18.17;5.10;;;12.50;42.00;;;;;;5124816;28;20430;-52
2024/01/08 03:41:03;;;;;;;10.23;4.18;;;12.50;42.10;;;;;;5122156;28;20121;-58
2024/01/08 03:43:30;;;;;;;12.27;4.03;;;12.50;42.30;;;;;;5124705;28;20421;-59
2024/01/08 03:45:57;;;;;;;12.07;3.35;;;12.40;42.30;;;;;;5121699;27;20626;-64
2024/01/08 03:48:24;;;;;;;14.60;3.60;;;12.40;42.50;;;;;;5126581;27;20552;-55
2024/01/08 03:50:50;;;;;;;9.18;2.70;;;12.40;42.90;;;;;;5129516;27;20075;-53
2024/01/08 03:53:17;;;;;;;12.60;4.10;;;12.40;43.30;;;;;;5126684;27;20980;-53
2024/01/08 03:55:44;;;;;;;19.55;8.38;;;12.30;44.00;;;;;;5109323;27;20139;-56
2024/01/08 03:58:10;;;;;;;36.65;17.33;;;12.30;44.50;;;;;;5129185;27;20080;-57
2024/01/08 04:00:36;;;;;;;46.40;22.58;;;12.30;45.80;;;;;;5129041;27;20484;-53
2024/01/08 04:03:03;;;;;;;44.20;17.30;;;12.30;46.50;;;;;;5129667;27;20140;-57
2024/01/08 04:05:30;;;;;;;23.45;9.27;;;12.30;47.30;;;;;;5128409;27;20105;-52
2024/01/08 04:07:56;;;;;;;22.58;5.68;;;12.30;47.90;;;;;;5129691;27;20107;-50
2024/01/08 04:10:23;;;;;;;15.85;4.07;;;12.30;48.50;;;;;;5128283;27;20438;-54
2024/01/08 04:12:49;;;;;;;25.75;4.10;;;12.30;49.20;;;;;;5125517;27;20114;-53
2024/01/08 04:15:16;;;;;;;11.25;3.33;;;12.30;49.60;;;;;;5128501;27;20063;-51
2024/01/08 04:17:42;;;;;;;28.27;3.92;;;12.40;50.10;;;;;;5128916;27;20150;-53
2024/01/08 04:20:09;;;;;;;12.50;6.00;;;12.40;50.40;;;;;;5128100;27;20076;-48
2024/01/08 04:22:35;;;;;;;16.20;5.78;;;12.40;50.70;;;;;;5127530;27;20496;-53
2024/01/08 04:25:02;;;;;;;10.98;5.88;;;12.40;50.70;;;;;;5129223;27;20445;-52
2024/01/08 04:27:28;;;;;;;12.82;5.63;;;12.30;50.60;;;;;;5127138;27;20103;-56
2024/01/08 04:29:54;;;;;;;;;;;12.30;50.90;;;;;;5128090;27;20103;-53
2024/01/08 04:32:21;;;;;;;7.90;2.90;;;12.20;51.60;;;;;;5128551;27;19980;-58
2024/01/08 04:34:47;;;;;;;10.65;2.88;;;12.10;51.40;;;;;;5128629;27;20067;-50
2024/01/08 04:37:14;;;;;;;13.65;3.70;;;12.10;51.70;;;;;;5128327;27;20166;-54
2024/01/08 04:39:40;;;;;;;8.77;2.80;;;12.10;51.60;;;;;;5127288;27;20072;-51
2024/01/08 04:42:06;;;;;;;6.70;2.95;;;12.10;51.60;;;;;;5125787;27;20166;-57
2024/01/08 04:44:33;;;;;;;12.10;3.40;;;12.10;52.00;;;;;;5128485;27;20494;-56
2024/01/08 04:46:59;;;;;;;7.07;3.10;;;12.00;52.50;;;;;;5127293;27;20218;-55
2024/01/08 04:49:26;;;;;;;13.68;3.78;;;12.00;52.30;;;;;;5125895;27;20124;-52
2024/01/08 04:51:52;;;;;;;10.35;3.72;;;12.00;52.20;;;;;;5125341;27;20104;-67
2024/01/08 04:54:19;;;;;;;12.00;3.30;;;12.00;52.30;;;;;;5127261;27;20075;-55
2024/01/08 04:56:48;;;;;;;10.57;3.40;;;12.00;52.40;;;;;;5108407;27;20538;-54
2024/01/08 04:59:14;;;;;;;10.00;3.40;;;12.00;52.50;;;;;;5125705;27;20098;-55
2024/01/08 05:01:41;;;;;;;16.45;4.03;;;12.00;52.60;;;;;;5125519;27;20198;-53
2024/01/08 05:04:07;;;;;;;9.18;3.15;;;12.00;52.70;;;;;;5109602;27;20080;-55
2024/01/08 05:06:34;;;;;;;8.77;2.95;;;11.90;52.80;;;;;;5124653;27;20695;-56
2024/01/08 05:09:02;;;;;;;17.20;3.05;;;11.90;52.90;;;;;;5127951;27;20076;-61
2024/01/08 05:11:28;;;;;;;10.65;3.28;;;11.90;52.90;;;;;;5125352;27;20113;-54
2024/01/08 05:13:54;;;;;;;10.95;2.85;;;11.90;53.00;;;;;;5127052;27;20134;-53
2024/01/08 05:16:21;;;;;;;7.45;2.80;;;11.80;52.90;;;;;;5127393;27;20163;-56
2024/01/08 05:18:48;;;;;;;9.68;3.17;;;11.80;53.00;;;;;;5125045;27;20079;-61
2024/01/08 05:21:15;;;;;;;13.25;2.80;;;11.80;53.10;;;;;;5124147;27;20075;-57
2024/01/08 05:23:41;;;;;;;8.77;3.47;;;11.70;53.10;;;;;;5124899;27;20068;-51
2024/01/08 05:26:08;;;;;;;14.27;5.85;;;11.70;52.90;;;;;;5126812;27;20075;-51
2024/01/08 05:28:35;;;;;;;18.88;4.63;;;11.70;53.10;;;;;;5127271;27;20158;-61
2024/01/08 05:31:01;;;;;;;6.32;2.50;;;11.60;52.90;;;;;;5127950;27;20074;-62
2024/01/08 05:33:28;;;;;;;5.72;2.63;;;11.70;53.00;;;;;;5108914;27;20132;-55
2024/01/08 05:35:55;;;;;;;8.77;2.70;;;11.60;53.40;;;;;;5125197;27;20076;-53
2024/01/08 05:38:22;;;;;;;9.00;2.60;;;11.60;53.50;;;;;;5126636;27;20094;-57
2024/01/08 05:40:49;;;;;;;8.07;2.30;;;11.60;53.90;;;;;;5126290;27;20079;-62
2024/01/08 05:43:16;;;;;;;7.78;2.33;;;11.70;54.70;;;;;;5123848;27;20125;-49
2024/01/08 05:45:42;;;;;;;6.50;2.33;;;11.60;54.80;;;;;;5126058;27;20073;-52
2024/01/08 05:48:09;;;;;;;7.65;5.20;;;11.60;55.00;;;;;;5126795;27;20086;-54
2024/01/08 05:50:35;;;;;;;6.93;3.33;;;11.60;55.10;;;;;;5124092;27;20080;-52
2024/01/08 05:53:02;;;;;;;5.85;2.40;;;11.60;55.80;;;;;;5124225;27;20114;-51
2024/01/08 05:55:28;;;;;;;4.80;2.28;;;11.60;55.60;;;;;;5124811;27;20177;-50
2024/01/08 05:57:55;;;;;;;4.90;2.00;;;11.60;55.70;;;;;;5125353;27;20071;-49
2024/01/08 06:00:21;;;;;;;5.68;2.08;;;11.60;55.80;;;;;;5123057;27;20183;-53
2024/01/08 06:02:48;;;;;;;2.88;1.67;;;11.60;55.70;;;;;;5126130;27;20123;-52
2024/01/08 06:05:14;;;;;;;5.75;1.60;;;11.60;55.80;;;;;;5124184;27;20074;-50
2024/01/08 06:07:41;;;;;;;6.75;1.65;;;11.60;55.80;;;;;;5123720;27;20071;-53
2024/01/08 06:10:08;;;;;;;5.10;1.90;;;11.60;56.00;;;;;;5121193;27;20090;-52
2024/01/08 06:12:35;;;;;;;5.28;1.90;;;11.60;56.20;;;;;;5125874;27;20099;-51
2024/01/08 06:15:02;;;;;;;7.43;1.90;;;11.50;56.40;;;;;;5107449;27;20156;-53
2024/01/08 06:17:28;;;;;;;3.65;1.90;;;11.50;56.60;;;;;;5125629;27;20554;-60
2024/01/08 06:19:55;;;;;;;6.32;1.98;;;11.40;57.10;;;;;;5125016;27;20452;-54
2024/01/08 06:22:21;;;;;;;5.05;1.65;;;11.40;57.60;;;;;;5125951;27;20152;-53
2024/01/08 06:24:47;;;;;;;6.60;1.30;;;11.30;57.80;;;;;;5124964;27;20086;-59
2024/01/08 06:27:14;;;;;;;6.18;1.42;;;11.30;58.40;;;;;;5124955;27;20151;-60
2024/01/08 06:29:40;;;;;;;6.70;1.83;;;11.20;58.70;;;;;;5125315;27;20440;-67
2024/01/08 06:32:07;;;;;;;5.53;2.67;;;11.10;59.00;;;;;;5123915;27;20092;-52
2024/01/08 06:34:33;;;;;;;3.80;2.00;;;11.10;59.50;;;;;;5122393;27;20074;-60
2024/01/08 06:37:00;;;;;;;6.40;2.75;;;11.00;59.50;;;;;;5125660;27;20533;-57
2024/01/08 06:39:26;;;;;;;14.25;3.67;;;11.00;59.90;;;;;;5123079;27;20540;-57
2024/01/08 06:41:53;;;;;;;6.00;2.17;;;10.90;60.10;;;;;;5124486;27;20594;-57
2024/01/08 06:44:19;;;;;;;4.18;2.38;;;10.80;60.50;;;;;;5125363;27;20075;-54
2024/01/08 06:46:46;;;;;;;6.82;2.92;;;10.80;60.80;;;;;;5125010;27;20086;-59
2024/01/08 06:49:12;;;;;;;5.68;2.40;;;10.80;61.00;;;;;;5122789;27;20129;-51
2024/01/08 06:51:40;;;;;;;;;;;10.80;61.10;;;;;;5124546;28;20099;-59
2024/01/08 06:54:07;;;;;;;5.03;2.17;;;10.70;61.30;;;;;;5123351;28;20510;-56
2024/01/08 06:56:34;;;;;;;8.60;2.05;;;10.60;61.60;;;;;;5107045;28;20522;-61
2024/01/08 06:59:03;;;;;;;5.70;3.17;;;10.60;61.80;;;;;;5124784;28;20078;-63
2024/01/08 07:01:31;;;;;;;8.57;2.03;;;10.50;62.10;;;;;;5124665;28;20120;-55
2024/01/08 07:03:58;;;;;;;9.32;1.55;;;10.50;62.20;;;;;;5106535;28;20159;-66
2024/01/08 07:06:24;;;;;;;5.13;1.60;;;10.50;62.10;;;;;;5124212;28;20148;-52
2024/01/08 07:08:51;;;;;;;4.18;1.67;;;10.40;62.00;;;;;;5125530;28;20142;-50
2024/01/08 07:11:24;;;;;;;4.00;1.60;;;10.40;62.20;;;;;;5124851;28;20089;-62
2024/01/08 07:13:51;;;;;;;5.95;1.80;;;10.40;62.50;;;;;;5123872;28;20190;-72
2024/01/08 07:16:18;;;;;;;4.85;1.55;;;10.30;62.60;;;;;;5124365;28;20119;-54
2024/01/08 07:18:45;;;;;;;1.75;1.17;;;10.30;62.00;;;;;;5125409;28;20075;-50
2024/01/08 07:21:16;;;;;;;2.88;1.40;;;10.30;61.80;;;;;;5123710;27;20435;-55
2024/01/08 07:23:48;;;;;;;3.30;1.40;;;10.30;61.50;;;;;;5129087;27;21173;-52
2024/01/08 07:26:15;;;;;;;3.65;1.30;;;10.30;60.90;;;;;;5130197;27;20079;-54
2024/01/08 07:28:45;;;;;;;3.72;1.30;;;10.30;60.90;;;;;;5127012;27;20166;-53
2024/01/08 07:31:12;;;;;;;4.50;1.33;;;10.20;60.40;;;;;;5129120;27;20075;-66
2024/01/08 07:33:41;;;;;;;3.80;1.20;;;10.20;60.30;;;;;;5128457;27;20100;-56
2024/01/08 07:36:08;;;;;;;3.67;1.35;;;10.20;60.10;;;;;;5127357;27;20651;-53
2024/01/08 07:38:34;;;;;;;5.35;1.73;;;10.10;60.00;;;;;;5126737;27;20068;-54
2024/01/08 07:41:01;;;;;;;2.42;1.20;;;10.10;60.00;;;;;;5110870;27;20078;-53
2024/01/08 07:43:28;;;;;;;7.15;1.55;;;10.10;59.60;;;;;;5126566;27;20068;-55
2024/01/08 07:45:54;;;;;;;3.85;1.17;;;10.00;59.50;;;;;;5128834;27;20086;-69
2024/01/08 07:48:21;;;;;;;5.15;1.33;;;10.00;59.60;;;;;;5128160;27;20441;-52
2024/01/08 07:50:48;;;;;;;3.05;1.27;;;10.00;59.70;;;;;;5126780;27;20076;-51
2024/01/08 07:53:16;;;;;;;2.45;1.42;;;9.90;59.50;;;;;;5128394;27;20149;-62
2024/01/08 07:55:43;;;;;;;6.22;1.42;;;9.90;59.70;;;;;;5124506;27;20374;-53
2024/01/08 07:58:13;;;;;;;4.60;1.45;;;9.90;59.30;;;;;;5122013;27;20087;-53
2024/01/08 08:00:40;;;;;;;5.88;1.70;;;9.90;59.20;;;;;;5121193;27;20100;-58
2024/01/08 08:03:08;;;;;;;3.88;1.40;;;9.80;59.10;;;;;;5122740;27;20203;-55
2024/01/08 08:05:35;;;;;;;8.57;1.60;;;9.80;58.90;;;;;;5122267;27;20071;-53
2024/01/08 08:08:02;;;;;;;3.80;1.30;;;9.80;59.00;;;;;;5124446;27;20103;-54
2024/01/08 08:10:29;;;;;;;4.65;1.48;;;9.80;59.10;;;;;;5124210;27;20080;-57
2024/01/08 08:12:55;;;;;;;2.40;1.30;;;9.70;59.00;;;;;;5122874;27;20107;-58
2024/01/08 08:15:22;;;;;;;4.38;1.30;;;9.70;58.90;;;;;;5125865;27;20071;-56
2024/01/08 08:17:50;;;;;;;4.78;1.23;;;9.70;59.00;;;;;;5122998;27;20186;-56
2024/01/08 08:20:16;;;;;;;7.65;1.70;;;9.70;60.00;;;;;;5123316;27;20076;-55
2024/01/08 08:22:43;;;;;;;4.53;1.52;;;9.60;59.90;;;;;;5121130;27;20071;-66
2024/01/08 08:25:09;;;;;;;5.30;1.38;;;9.50;59.50;;;;;;5122726;27;20155;-59
2024/01/08 08:27:36;;;;;;;4.70;1.30;;;9.60;59.50;;;;;;5124870;27;20076;-62
2024/01/08 08:30:02;;;;;;;2.15;0.90;;;9.50;58.90;;;;;;5120333;27;20076;-53
2024/01/08 08:32:29;;;;;;;3.45;1.15;;;9.50;58.50;;;;;;5121750;27;20142;-54
2024/01/08 08:34:55;;;;;;;5.72;1.23;;;9.50;58.00;;;;;;5104539;27;20145;-54
2024/01/08 08:37:22;;;;;;;4.57;1.30;;;9.60;57.70;;;;;;5121543;27;20124;-60
2024/01/08 08:39:48;;;;;;;5.32;1.10;;;9.70;57.10;;;;;;5121498;27;20068;-60
2024/01/08 08:42:15;;;;;;;2.92;1.10;;;9.70;56.70;;;;;;5121430;27;20076;-53
2024/01/08 08:44:41;;;;;;;5.05;1.30;;;9.70;56.20;;;;;;5122661;27;20147;-55
2024/01/08 08:47:07;;;;;;;3.20;1.17;;;9.70;55.50;;;;;;5123473;27;20079;-59
2024/01/08 08:49:34;;;;;;;10.57;1.05;;;9.70;54.90;;;;;;5102998;27;20106;-52
2024/01/08 08:52:02;;;;;;;2.97;1.00;;;9.80;54.30;;;;;;5121609;27;20562;-55
2024/01/08 08:54:28;;;;;;;5.95;1.10;;;9.80;53.90;;;;;;5122595;27;20232;-52
2024/01/08 08:56:55;;;;;;;5.63;1.20;;;9.80;53.60;;;;;;5122590;27;20158;-56
2024/01/08 08:59:21;;;;;;;9.65;1.40;;;9.80;53.60;;;;;;5122092;27;20158;-51
2024/01/08 09:01:51;;;;;;;6.03;0.98;;;9.70;53.20;;;;;;5121906;27;20112;-51
2024/01/08 09:04:17;;;;;;;4.90;1.17;;;9.70;53.10;;;;;;5123167;27;20492;-56
2024/01/08 09:06:44;;;;;;;7.90;1.45;;;9.70;53.50;;;;;;5123289;27;20079;-65
2024/01/08 09:09:11;;;;;;;2.53;1.02;;;9.70;53.60;;;;;;5123413;27;20075;-56
2024/01/08 09:11:38;;;;;;;6.13;1.23;;;9.60;53.90;;;;;;5122426;27;20109;-62
2024/01/08 09:14:08;;;;;;;2.60;1.08;;;9.60;53.60;;;;;;5122568;27;20131;-58
2024/01/08 09:16:35;;;;;;;2.47;1.10;;;9.50;53.40;;;;;;5122261;27;20079;-59
2024/01/08 09:19:03;;;;;;;3.60;0.88;;;9.50;53.30;;;;;;5123366;27;20084;-71
2024/01/08 09:21:29;;;;;;;6.22;1.00;;;9.50;53.30;;;;;;5121069;27;20124;-51
2024/01/08 09:23:56;;;;;;;7.80;1.45;;;9.40;53.30;;;;;;5121005;27;20072;-55
2024/01/08 09:26:22;;;;;;;4.72;1.23;;;9.40;53.70;;;;;;5122389;27;20132;-60
2024/01/08 09:28:49;;;;;;;3.65;0.90;;;9.30;53.70;;;;;;5103222;27;20119;-59
2024/01/08 09:31:16;;;;;;;5.38;1.10;;;9.40;54.20;;;;;;5120942;27;20090;-72
2024/01/08 09:33:43;;;;;;;2.83;0.77;;;9.40;53.80;;;;;;5099402;27;20151;-53
2024/01/08 09:36:09;;;;;;;3.20;0.90;;;9.40;53.60;;;;;;5120521;27;20075;-74
2024/01/08 09:38:36;;;;;;;4.22;1.00;;;9.40;53.70;;;;;;5120217;27;20076;-49
2024/01/08 09:41:02;;;;;;;2.50;0.90;;;9.40;53.90;;;;;;5119715;27;20596;-52
2024/01/08 09:43:31;;;;;;;6.95;1.10;;;9.40;53.90;;;;;;5120004;27;21203;-51
2024/01/08 09:46:09;;;;;;;4.22;1.00;;;9.40;54.40;;;;;;5120995;27;20067;-69
2024/01/08 09:48:36;;;;;;;8.00;1.00;;;9.50;53.70;;;;;;5119647;27;20079;-59
2024/01/08 09:51:03;;;;;;;4.03;1.08;;;9.50;53.70;;;;;;5120428;27;20114;-57
2024/01/08 09:53:31;;;;;;;4.68;1.17;;;9.50;53.70;;;;;;5120302;27;20103;-51
2024/01/08 09:55:58;;;;;;;7.47;1.45;;;9.50;53.70;;;;;;5121892;27;20102;-51
2024/01/08 09:58:26;;;;;;;8.98;0.98;;;9.50;53.80;;;;;;5118173;27;20727;-49
2024/01/08 10:00:53;;;;;;;7.95;1.27;;;9.50;53.80;;;;;;5121128;27;20080;-54
2024/01/08 10:03:20;;;;;;;2.13;1.30;;;9.50;54.10;;;;;;5118999;27;20104;-61
2024/01/08 10:05:46;;;;;;;3.90;1.10;;;9.40;54.00;;;;;;5119291;27;20076;-51
2024/01/08 10:08:13;;;;;;;5.53;1.23;;;9.40;54.10;;;;;;5119339;27;20071;-53
2024/01/08 10:10:40;;;;;;;3.80;1.13;;;9.40;54.30;;;;;;5117589;27;20084;-56
2024/01/08 10:13:11;;;;;;;1.85;1.10;;;9.30;54.50;;;;;;5119343;27;20107;-55
2024/01/08 10:15:38;;;;;;;5.97;1.02;;;9.30;54.70;;;;;;5118523;27;20445;-52
2024/01/08 10:18:08;;;;;;;5.90;1.27;;;9.30;54.80;;;;;;5120117;27;20103;-53
2024/01/08 10:20:35;;;;;;;3.30;1.17;;;9.20;55.00;;;;;;5118136;27;20086;-56
2024/01/08 10:23:06;;;;;;;2.45;1.05;;;9.10;55.20;;;;;;5121095;27;20072;-53
2024/01/08 10:25:34;;;;;;;3.75;1.33;;;9.10;55.50;;;;;;5120190;27;20090;-60
2024/01/08 10:28:01;;;;;;;6.38;1.30;;;9.10;55.60;;;;;;5118585;27;20121;-51
2024/01/08 10:30:27;;;;;;;8.40;1.27;;;9.00;55.70;;;;;;5119056;27;20075;-52
2024/01/08 10:32:59;;;;;;;5.53;1.75;;;9.00;55.70;;;;;;5119156;27;20095;-53
2024/01/08 10:35:30;;;;;;;6.25;2.10;;;9.00;55.40;;;;;;5120450;27;20102;-58
2024/01/08 10:38:00;;;;;;;8.00;2.08;;;9.00;55.30;;;;;;5117924;27;20132;-60
2024/01/08 10:40:30;;;;;;;8.45;2.30;;;9.10;55.70;;;;;;5120287;27;20078;-72
2024/01/08 10:42:57;;;;;;;8.73;1.90;;;9.00;55.00;;;;;;5119156;27;20075;-54
2024/01/08 10:45:23;;;;;;;7.00;2.20;;;9.00;55.10;;;;;;5119702;27;20147;-58
2024/01/08 10:48:14;;;;;;;5.22;1.70;;;9.00;55.00;;;;;;5119007;27;20885;-53
2024/01/08 10:50:45;;;;;;;10.02;1.50;;;9.00;54.80;;;;;;5090675;27;20095;-56
2024/01/08 10:53:23;;;;;;;4.05;1.23;;;9.00;55.40;;;;;;5118224;28;20149;-58
2024/01/08 10:55:51;;;;;;;12.48;1.30;;;9.00;55.60;;;;;;5122182;27;20600;-56
2024/01/08 10:58:28;;;;;;;4.50;1.52;;;8.90;56.00;;;;;;5123286;27;20125;-52
2024/01/08 11:00:55;;;;;;;5.72;1.65;;;8.90;55.30;;;;;;5123827;27;20571;-53
2024/01/08 11:03:21;;;;;;;5.60;1.35;;;8.90;55.40;;;;;;5125725;27;20107;-52
2024/01/08 11:05:51;;;;;;;5.50;1.10;;;8.90;55.10;;;;;;5125615;27;21204;-52
2024/01/08 11:08:24;;;;;;;7.35;1.33;;;9.00;54.70;;;;;;5126453;27;20099;-51
2024/01/08 11:10:51;;;;;;;6.53;1.20;;;9.10;54.00;;;;;;5106699;27;20399;-50
2024/01/08 11:13:18;;;;;;;8.07;1.55;;;9.20;53.30;;;;;;5125589;27;20815;-60
2024/01/08 11:15:46;;;;;;;10.18;1.33;;;9.30;52.80;;;;;;5126266;27;20082;-53
2024/01/08 11:18:28;;;;;;;6.18;1.23;;;9.40;52.30;;;;;;5126728;27;21744;-56
2024/01/08 11:20:56;;;;;;;10.65;1.10;;;9.40;52.50;;;;;;5128326;27;20116;-54
2024/01/08 11:23:37;;;;;;;4.50;1.20;;;9.40;52.90;;;;;;5127794;27;20100;-60
2024/01/08 11:26:23;;;;;;;9.80;1.42;;;9.60;51.80;;;;;;5128778;27;20079;-55
2024/01/08 11:29:06;;;;;;;7.00;1.27;;;9.60;51.70;;;;;;5110081;27;20076;-53
2024/01/08 11:31:48;;;;;;;6.55;1.30;;;9.70;51.30;;;;;;5106650;27;20100;-68
2024/01/08 11:34:33;;;;;;;3.22;0.90;;;10.00;50.00;;;;;;5125488;27;20099;-53
2024/01/08 11:37:20;;;;;;;6.47;0.90;;;10.10;49.70;;;;;;5125969;27;20438;-56
2024/01/08 11:39:50;;;;;;;4.90;0.80;;;10.00;49.60;;;;;;5123962;27;20106;-53
2024/01/08 11:42:18;;;;;;;6.88;0.88;;;10.00;49.50;;;;;;5123798;27;20522;-52
2024/01/08 11:44:45;;;;;;;4.57;0.90;;;10.10;49.00;;;;;;5125371;27;20068;-58
2024/01/08 11:47:11;;;;;;;3.70;0.90;;;10.10;49.00;;;;;;5127813;27;20078;-52
2024/01/08 11:49:38;;;;;;;2.17;0.70;;;10.30;47.70;;;;;;5107528;27;20072;-49
2024/01/08 11:52:08;;;;;;;4.20;0.85;;;10.30;47.70;;;;;;5126422;27;20541;-53
2024/01/08 11:54:34;;;;;;;7.22;0.80;;;10.30;47.30;;;;;;5123719;27;20080;-53
2024/01/08 11:57:05;;;;;;;11.98;1.33;;;10.30;47.20;;;;;;5126578;27;20124;-53
2024/01/08 11:59:36;;;;;;;20.40;1.20;;;10.40;46.00;;;;;;5107504;27;20166;-55
2024/01/08 12:02:18;;;;;;;5.35;0.90;;;10.50;45.80;;;;;;5106008;27;20119;-54
2024/01/08 12:04:56;;;;;;;13.10;1.10;;;10.60;44.50;;;;;;5123821;27;20083;-52
2024/01/08 12:07:24;;;;;;;13.75;1.10;;;10.60;43.70;;;;;;5126526;27;20079;-55
2024/01/08 12:09:51;;;;;;;6.45;0.90;;;10.70;43.30;;;;;;5120819;27;20088;-54
2024/01/08 12:12:19;;;;;;;4.00;0.95;;;10.80;43.20;;;;;;5120127;27;20103;-51
2024/01/08 12:14:47;;;;;;;6.95;0.93;;;10.70;43.80;;;;;;5120920;27;20074;-50
2024/01/08 12:17:16;;;;;;;5.32;0.77;;;10.60;44.00;;;;;;5123310;27;20083;-55
2024/01/08 12:19:54;;;;;;;9.45;1.00;;;10.60;44.20;;;;;;5119596;27;20072;-52
2024/01/08 12:22:22;;;;;;;4.65;0.82;;;10.50;44.20;;;;;;5120898;27;20083;-61
2024/01/08 12:24:55;;;;;;;4.82;0.93;;;10.50;44.10;;;;;;5123819;27;20079;-55
2024/01/08 12:27:22;;;;;;;2.58;0.60;;;10.50;43.60;;;;;;5121665;27;20531;-61
2024/01/08 12:29:50;;;;;;;1.33;0.60;;;10.40;43.70;;;;;;5123231;27;20087;-55
2024/01/08 12:32:20;;;;;;;4.68;0.57;;;10.40;44.20;;;;;;5124319;27;20522;-56
2024/01/08 12:34:47;;;;;;;5.45;0.70;;;10.40;44.10;;;;;;5120835;27;20521;-55
2024/01/08 12:37:16;;;;;;;3.53;0.88;;;10.40;43.70;;;;;;5120528;27;20095;-59
2024/01/08 12:39:44;;;;;;;2.55;0.80;;;10.50;42.90;;;;;;5119842;27;20068;-56
2024/01/08 12:42:17;;;;;;;4.57;0.90;;;10.50;43.20;;;;;;5103708;27;20669;-54
2024/01/08 12:44:45;;;;;;;6.55;0.80;;;10.50;42.90;;;;;;5121971;27;20104;-53
2024/01/08 12:47:12;;;;;;;4.72;0.60;;;10.60;42.00;;;;;;5122966;27;20147;-59
2024/01/08 12:49:39;;;;;;;0.98;0.50;;;10.60;41.80;;;;;;5121457;27;20116;-52